Time;durP1;ratioP1;P1;durP2;ratioP2;P2;SDS_P1;SDS_P2;PMS_P1;PMS_P2;Temp;Humidity;BMP_temperature;BMP_pressure;BME280_temperature;BME280_humidity;BME280_pressure;Samples;Min_cycle;Max_cycle;Signal;HPM_P1;HPM_P2
2020/12/06 00:01:49;;;;;;;17.80;9.43;;;;;;;-4.04;87.53;101573.76;1662760;85;21495;-75
2020/12/06 00:04:20;;;;;;;15.10;8.27;;;;;;;-4.03;88.40;101571.32;1664958;84;21170;-73
2020/12/06 00:06:48;;;;;;;15.63;8.90;;;;;;;-4.04;88.38;101569.58;1691313;84;21116;-74
2020/12/06 00:09:17;;;;;;;17.37;9.50;;;;;;;-4.11;87.13;101576.25;1671032;84;21184;-76
2020/12/06 00:11:44;;;;;;;15.40;8.63;;;;;;;-4.13;87.72;101571.86;1667251;84;21207;-76
2020/12/06 00:14:12;;;;;;;20.93;9.70;;;;;;;-4.20;87.07;101581.93;1656945;85;21158;-74
2020/12/06 00:16:41;;;;;;;17.07;9.33;;;;;;;-4.20;87.49;101584.84;1691272;83;21382;-73
2020/12/06 00:19:08;;;;;;;15.50;9.13;;;;;;;-4.24;87.56;101583.38;1688380;84;21143;-74
2020/12/06 00:21:36;;;;;;;14.87;8.33;;;;;;;-4.29;87.11;101583.42;1688455;83;21175;-76
2020/12/06 00:24:05;;;;;;;16.73;8.40;;;;;;;-4.32;87.25;101588.27;1647275;85;21061;-74
2020/12/06 00:26:33;;;;;;;20.03;9.23;;;;;;;-4.36;87.07;101585.43;1680240;84;21148;-75
2020/12/06 00:29:00;;;;;;;24.43;9.90;;;;;;;-4.42;86.67;101582.08;1696535;83;21844;-76
2020/12/06 00:31:28;;;;;;;22.80;9.40;;;;;;;-4.49;86.66;101579.52;1680399;84;21184;-75
2020/12/06 00:33:55;;;;;;;15.97;9.33;;;;;;;-4.48;87.25;101581.64;1677744;83;21634;-76
2020/12/06 00:36:23;;;;;;;16.80;9.30;;;;;;;-4.47;87.08;101579.64;1679922;84;21057;-76
2020/12/06 00:38:50;;;;;;;14.20;7.83;;;;;;;-4.44;87.25;101582.37;1697112;83;21062;-75
2020/12/06 00:41:19;;;;;;;14.80;9.23;;;;;;;-4.45;86.39;101583.13;1679698;83;21830;-74
2020/12/06 00:43:46;;;;;;;19.57;10.30;;;;;;;-4.45;86.45;101584.78;1669286;83;21152;-75
2020/12/06 00:46:20;;;;;;;16.43;9.37;;;;;;;-4.48;86.06;101586.34;1668334;84;21080;-76
2020/12/06 00:48:48;;;;;;;19.63;9.37;;;;;;;-4.49;86.26;101583.69;1650718;84;21177;-75
2020/12/06 00:51:16;;;;;;;19.20;9.63;;;;;;;-4.50;86.20;101584.47;1684783;84;21128;-75
2020/12/06 00:53:44;;;;;;;18.13;9.23;;;;;;;-4.51;86.24;101582.72;1720766;82;21814;-75
2020/12/06 00:56:17;;;;;;;20.80;9.90;;;;;;;-4.50;86.13;101584.47;1721731;82;21160;-75
2020/12/06 00:58:46;;;;;;;22.70;10.90;;;;;;;-4.52;85.00;101585.61;1722370;81;21173;-74
2020/12/06 01:01:15;;;;;;;15.27;7.60;;;;;;;-4.58;84.79;101585.56;1722745;82;21265;-75
2020/12/06 01:03:43;;;;;;;19.77;8.27;;;;;;;-4.70;85.34;101594.43;1689063;83;21149;-74
2020/12/06 01:06:16;;;;;;;14.43;7.03;;;;;;;-4.78;85.26;101595.13;1707410;83;21745;-75
2020/12/06 01:08:44;;;;;;;14.10;7.33;;;;;;;-4.85;85.02;101578.17;1707664;82;21072;-75
2020/12/06 01:11:13;;;;;;;16.23;7.03;;;;;;;-4.89;84.85;101583.39;1708880;81;21085;-76
2020/12/06 01:13:41;;;;;;;14.40;7.70;;;;;;;-4.94;85.39;101583.43;1714469;82;21183;-75
2020/12/06 01:16:08;;;;;;;13.33;7.10;;;;;;;-4.99;85.42;101587.29;1728378;82;21136;-76
2020/12/06 01:18:36;;;;;;;12.53;7.53;;;;;;;-5.02;85.41;101588.33;1651018;85;21403;-76
2020/12/06 01:21:04;;;;;;;20.10;8.67;;;;;;;-5.04;85.07;101591.11;1718640;82;21105;-75
2020/12/06 01:23:32;;;;;;;16.80;7.93;;;;;;;-5.07;85.11;101592.14;1720057;82;21135;-74
2020/12/06 01:25:59;;;;;;;11.27;6.67;;;;;;;-5.08;85.42;101590.41;1712560;82;21070;-75
2020/12/06 01:28:27;;;;;;;13.10;7.80;;;;;;;-5.10;85.05;101585.61;1733828;82;21128;-75
2020/12/06 01:30:54;;;;;;;18.90;7.93;;;;;;;-5.13;84.76;101587.91;1722896;82;21239;-73
2020/12/06 01:33:22;;;;;;;16.17;8.47;;;;;;;-5.15;84.97;101595.77;1713674;81;21150;-76
2020/12/06 01:35:50;;;;;;;13.30;7.70;;;;;;;-5.18;85.02;101593.51;1717983;82;21093;-75
2020/12/06 01:38:18;;;;;;;13.10;6.23;;;;;;;-5.20;85.13;101596.33;1722187;81;21167;-75
2020/12/06 01:40:45;;;;;;;10.80;5.63;;;;;;;-5.23;84.94;101591.05;1737886;82;21148;-75
2020/12/06 01:43:13;;;;;;;12.73;6.57;;;;;;;-5.20;84.64;101596.67;1720573;81;21188;-75
2020/12/06 01:45:40;;;;;;;15.40;7.70;;;;;;;-5.24;84.74;101601.02;1726980;81;21093;-76
2020/12/06 01:48:08;;;;;;;14.70;7.80;;;;;;;-5.23;84.72;101604.05;1749486;81;21132;-75
2020/12/06 01:50:37;;;;;;;14.33;6.93;;;;;;;-5.21;84.82;101608.42;1728354;82;21186;-75
2020/12/06 01:53:06;;;;;;;14.67;7.83;;;;;;;-5.23;84.58;101602.41;1728751;83;21167;-75
2020/12/06 01:55:34;;;;;;;15.53;7.00;;;;;;;-5.22;84.78;101600.37;1721347;81;21770;-75
2020/12/06 01:58:07;;;;;;;13.63;6.93;;;;;;;-5.19;84.67;101595.55;1739642;82;21135;-75
2020/12/06 02:00:36;;;;;;;13.30;7.60;;;;;;;-5.21;83.97;101596.20;1726166;81;21212;-74
2020/12/06 02:03:04;;;;;;;13.60;6.70;;;;;;;-5.24;84.04;101584.62;1746680;81;21057;-75
2020/12/06 02:05:32;;;;;;;13.33;6.83;;;;;;;-5.25;84.05;101584.12;1725024;82;21052;-75
2020/12/06 02:08:02;;;;;;;14.33;7.07;;;;;;;-5.29;83.86;101591.86;1728654;82;21694;-76
2020/12/06 02:10:32;;;;;;;15.30;7.07;;;;;;;-5.33;84.21;101588.63;1674692;83;21089;-75
2020/12/06 02:12:59;;;;;;;16.87;7.30;;;;;;;-5.36;84.38;101585.87;1650293;85;21065;-74
2020/12/06 02:15:28;;;;;;;13.30;6.60;;;;;;;-5.35;84.57;101591.80;1685560;83;21127;-75
2020/12/06 02:17:55;;;;;;;14.70;8.43;;;;;;;-5.34;84.67;101590.63;1679413;84;21167;-75
2020/12/06 02:20:23;;;;;;;12.83;7.17;;;;;;;-5.31;84.83;101595.02;1668761;84;22273;-75
2020/12/06 02:22:51;;;;;;;17.23;7.53;;;;;;;-5.31;83.98;101597.16;1682315;83;21110;-75
2020/12/06 02:25:19;;;;;;;16.20;7.13;;;;;;;-5.27;84.24;101597.00;1665953;85;21170;-76
2020/12/06 02:27:46;;;;;;;14.80;8.50;;;;;;;-5.30;83.20;101602.69;1677276;84;21109;-75
2020/12/06 02:30:14;;;;;;;11.50;6.17;;;;;;;-5.33;83.25;101601.23;1688443;84;21083;-75
2020/12/06 02:32:41;;;;;;;12.77;6.47;;;;;;;-5.37;82.85;101612.22;1693642;83;21371;-74
2020/12/06 02:35:09;;;;;;;17.20;7.50;;;;;;;-5.41;83.41;101596.86;1674994;85;21173;-75
2020/12/06 02:37:37;;;;;;;18.50;7.73;;;;;;;-5.43;83.33;101601.29;1675142;84;21193;-76
2020/12/06 02:40:05;;;;;;;14.83;7.03;;;;;;;-5.44;83.29;101599.55;1679487;84;21320;-75
2020/12/06 02:42:32;;;;;;;10.63;5.93;;;;;;;-5.43;83.38;101598.77;1691351;84;21041;-75
2020/12/06 02:45:01;;;;;;;14.73;7.33;;;;;;;-5.44;83.01;101606.72;1676301;84;21088;-76
2020/12/06 02:47:29;;;;;;;14.70;7.37;;;;;;;-5.47;83.27;101604.36;1670266;84;21153;-76
2020/12/06 02:49:57;;;;;;;12.03;6.27;;;;;;;-5.51;82.77;101612.08;1675188;84;21158;-76
2020/12/06 02:52:25;;;;;;;11.67;5.47;;;;;;;-5.54;82.78;101610.59;1671617;84;21180;-75
2020/12/06 02:54:53;;;;;;;11.03;5.07;;;;;;;-5.58;82.68;101606.47;1668154;85;21084;-76
2020/12/06 02:57:21;;;;;;;11.97;6.27;;;;;;;-5.63;82.61;101609.89;1667243;84;21463;-76
2020/12/06 02:59:49;;;;;;;13.07;6.43;;;;;;;-5.67;82.64;101615.09;1685776;84;21153;-74
2020/12/06 03:02:16;;;;;;;10.10;5.43;;;;;;;-5.71;82.93;101610.59;1695125;84;21105;-76
2020/12/06 03:04:45;;;;;;;13.90;6.23;;;;;;;-5.74;82.81;101615.78;1669761;84;21187;-75
2020/12/06 03:07:12;;;;;;;11.70;6.30;;;;;;;-5.75;82.90;101612.77;1676194;85;21039;-74
2020/12/06 03:09:40;;;;;;;10.47;5.80;;;;;;;-5.76;82.72;101607.21;1692273;84;21480;-75
2020/12/06 03:12:09;;;;;;;13.07;6.13;;;;;;;-5.76;82.62;101613.13;1682468;84;21118;-76
2020/12/06 03:14:36;;;;;;;11.53;6.07;;;;;;;-5.77;82.69;101621.84;1668074;84;21144;-75
2020/12/06 03:17:04;;;;;;;9.37;4.67;;;;;;;-5.79;82.74;101627.14;1648531;84;21215;-75
2020/12/06 03:19:31;;;;;;;11.33;5.90;;;;;;;-5.81;82.74;101624.52;1677052;84;21160;-75
2020/12/06 03:21:59;;;;;;;9.37;5.47;;;;;;;-5.83;82.76;101632.72;1667953;84;21838;-74
2020/12/06 03:24:27;;;;;;;10.83;6.60;;;;;;;-5.85;82.98;101636.39;1666133;84;21177;-75
2020/12/06 03:26:54;;;;;;;10.53;6.47;;;;;;;-5.85;83.11;101632.62;1677553;84;21084;-76
2020/12/06 03:29:22;;;;;;;10.93;6.50;;;;;;;-5.85;82.82;101627.58;1670678;84;21119;-75
2020/12/06 03:31:49;;;;;;;11.60;5.07;;;;;;;-5.87;82.92;101634.52;1673718;85;21204;-75
2020/12/06 03:34:17;;;;;;;12.23;6.30;;;;;;;-5.88;82.78;101628.60;1677675;84;21532;-76
2020/12/06 03:36:44;;;;;;;9.40;5.37;;;;;;;-5.89;82.78;101636.55;1666885;84;21070;-75
2020/12/06 03:39:15;;;;;;;9.03;5.37;;;;;;;-5.94;81.93;101636.59;1667829;84;21666;-75
2020/12/06 03:41:46;;;;;;;11.03;5.87;;;;;;;-5.98;82.18;101637.13;1666770;84;21152;-74
2020/12/06 03:44:13;;;;;;;14.83;5.20;;;;;;;-6.02;82.06;101630.07;1682424;84;21562;-74
2020/12/06 03:46:41;;;;;;;13.77;6.27;;;;;;;-6.02;81.95;101643.05;1671251;84;21374;-76
2020/12/06 03:49:09;;;;;;;14.53;5.33;;;;;;;-6.02;82.24;101646.83;1685396;84;21142;-75
2020/12/06 03:51:36;;;;;;;10.33;5.93;;;;;;;-6.03;81.62;101642.56;1685471;84;21121;-76
2020/12/06 03:54:04;;;;;;;14.83;6.33;;;;;;;-6.06;81.94;101644.84;1670303;84;21164;-75
2020/12/06 03:56:32;;;;;;;10.63;5.20;;;;;;;-6.08;81.96;101645.09;1671406;84;21111;-75
2020/12/06 03:59:00;;;;;;;9.80;5.80;;;;;;;-6.12;81.63;101644.86;1671299;84;21660;-76
2020/12/06 04:01:28;;;;;;;10.07;5.80;;;;;;;-6.14;81.68;101646.40;1697337;84;21132;-75
2020/12/06 04:03:56;;;;;;;8.80;6.17;;;;;;;-6.17;81.87;101641.13;1670950;84;21106;-76
2020/12/06 04:06:24;;;;;;;11.50;5.67;;;;;;;-6.17;82.08;101649.94;1673955;84;21165;-75
2020/12/06 04:08:53;;;;;;;7.70;5.30;;;;;;;-6.15;82.12;101655.08;1684381;84;21096;-73
2020/12/06 04:11:21;;;;;;;10.67;5.50;;;;;;;-6.17;81.76;101652.45;1672548;83;21347;-74
2020/12/06 04:13:48;;;;;;;13.50;5.20;;;;;;;-6.16;81.87;101658.36;1743102;82;21133;-74
2020/12/06 04:16:16;;;;;;;10.90;6.47;;;;;;;-6.19;81.63;101661.52;1723695;82;21548;-74
2020/12/06 04:18:44;;;;;;;12.70;5.53;;;;;;;-6.20;81.51;101658.51;1685146;83;21042;-75
2020/12/06 04:21:12;;;;;;;11.40;6.77;;;;;;;-6.20;81.17;101661.41;1625016;86;21172;-74
2020/12/06 04:23:39;;;;;;;11.03;6.53;;;;;;;-6.21;80.97;101660.54;1685474;83;22219;-75
2020/12/06 04:26:07;;;;;;;13.50;5.83;;;;;;;-6.22;81.09;101670.09;1677404;83;21156;-73
2020/12/06 04:28:35;;;;;;;13.90;6.23;;;;;;;-6.26;80.49;101663.06;1619287;86;21111;-74
2020/12/06 04:31:02;;;;;;;12.77;5.60;;;;;;;-6.27;80.48;101667.61;1716655;81;21485;-73
2020/12/06 04:33:30;;;;;;;10.33;6.80;;;;;;;-6.30;80.26;101671.14;1671086;83;21066;-73
2020/12/06 04:35:58;;;;;;;10.43;6.33;;;;;;;-6.30;80.50;101667.75;1717803;82;21867;-75
2020/12/06 04:38:25;;;;;;;11.03;6.03;;;;;;;-6.32;80.27;101676.43;1702905;81;21636;-74
2020/12/06 04:40:53;;;;;;;12.67;5.60;;;;;;;-6.30;80.57;101674.92;1663583;83;21151;-73
2020/12/06 04:43:20;;;;;;;11.80;5.50;;;;;;;-6.31;80.28;101670.66;1652783;83;21290;-74
2020/12/06 04:45:48;;;;;;;10.97;5.03;;;;;;;-6.25;80.52;101675.27;1696233;83;21152;-74
2020/12/06 04:48:25;;;;;;;12.63;6.90;;;;;;;-6.28;79.87;101667.47;1695162;83;21827;-74
2020/12/06 04:50:54;;;;;;;13.73;6.70;;;;;;;-6.30;79.93;101676.19;1678653;84;21477;-74
2020/12/06 04:53:26;;;;;;;15.67;6.07;;;;;;;-6.31;80.21;101670.66;1655273;85;21072;-75
2020/12/06 04:55:56;;;;;;;8.63;4.83;;;;;;;-6.28;80.44;101668.34;1688037;83;21218;-76
2020/12/06 04:58:27;;;;;;;10.40;5.70;;;;;;;-6.30;79.71;101677.83;1687088;84;21059;-76
2020/12/06 05:00:56;;;;;;;13.30;5.47;;;;;;;-6.25;80.18;101674.02;1669817;85;21604;-75
2020/12/06 05:03:25;;;;;;;15.03;6.47;;;;;;;-6.25;80.22;101676.53;1644656;85;21162;-75
2020/12/06 05:05:53;;;;;;;12.53;6.90;;;;;;;-6.25;79.74;101676.53;1639906;86;21115;-75
2020/12/06 05:08:20;;;;;;;11.57;5.90;;;;;;;-6.25;79.99;101674.88;1706135;83;21053;-75
2020/12/06 05:10:48;;;;;;;15.50;6.10;;;;;;;-6.24;80.25;101675.41;1694387;83;21156;-75
2020/12/06 05:13:16;;;;;;;10.03;5.50;;;;;;;-6.22;79.83;101678.91;1679354;83;22249;-76
2020/12/06 05:15:46;;;;;;;13.45;5.53;;;;;;;-6.23;79.34;101676.28;1696969;83;21604;-76
2020/12/06 05:18:14;;;;;;;10.73;5.23;;;;;;;-6.25;79.28;101683.70;1702107;83;21097;-76
2020/12/06 05:20:41;;;;;;;8.90;5.17;;;;;;;-6.30;79.13;101687.52;1715763;83;21076;-76
2020/12/06 05:23:09;;;;;;;9.13;4.90;;;;;;;-6.32;79.29;101686.50;1670712;84;21125;-74
2020/12/06 05:25:37;;;;;;;12.87;6.70;;;;;;;-6.34;79.32;101686.78;1673433;83;21397;-76
2020/12/06 05:28:07;;;;;;;14.10;6.70;;;;;;;-6.34;79.40;101684.27;1681232;84;21153;-75
2020/12/06 05:30:40;;;;;;;14.57;6.93;;;;;;;-6.32;79.41;101683.11;1674083;83;21530;-76
2020/12/06 05:33:10;;;;;;;15.27;7.07;;;;;;;-6.34;79.59;101683.00;1666527;85;21135;-76
2020/12/06 05:35:43;;;;;;;13.80;7.00;;;;;;;-6.31;79.69;101683.25;1692571;83;21126;-75
2020/12/06 05:38:10;;;;;;;15.10;6.47;;;;;;;-6.25;79.67;101685.34;1657485;85;22115;-77
2020/12/06 05:40:45;;;;;;;15.80;6.70;;;;;;;-6.23;79.17;101685.09;1688133;83;21544;-75
2020/12/06 05:43:13;;;;;;;12.67;6.63;;;;;;;-6.22;78.84;101687.72;1704228;83;21184;-74
2020/12/06 05:45:40;;;;;;;12.47;6.20;;;;;;;-6.22;78.87;101692.76;1653054;83;21141;-74
2020/12/06 05:48:08;;;;;;;12.90;6.43;;;;;;;-6.22;78.77;101686.84;1716872;83;21149;-75
2020/12/06 05:50:36;;;;;;;10.03;5.83;;;;;;;-6.22;78.24;101690.63;1699931;83;21208;-75
2020/12/06 05:53:04;;;;;;;14.23;5.63;;;;;;;-6.24;77.97;101694.69;1738614;82;21051;-75
2020/12/06 05:55:32;;;;;;;12.60;6.50;;;;;;;-6.26;77.82;101687.37;1702710;82;21198;-76
2020/12/06 05:58:00;;;;;;;12.53;6.40;;;;;;;-6.27;77.61;101694.05;1680834;83;21156;-75
2020/12/06 06:00:28;;;;;;;11.37;5.20;;;;;;;-6.24;77.86;101696.81;1734518;82;21148;-75
2020/12/06 06:02:56;;;;;;;10.77;4.83;;;;;;;-6.24;77.12;101699.34;1697678;82;22617;-78
2020/12/06 06:05:24;;;;;;;11.77;6.47;;;;;;;-6.24;77.09;101700.59;1731810;82;21105;-77
2020/12/06 06:07:52;;;;;;;12.23;6.70;;;;;;;-6.22;76.86;101701.95;1751268;81;21105;-76
2020/12/06 06:10:19;;;;;;;11.83;5.83;;;;;;;-6.22;77.00;101704.09;1717175;82;21155;-74
2020/12/06 06:12:56;;;;;;;9.07;5.83;;;;;;;-6.19;77.02;101711.89;1732266;82;21125;-76
2020/12/06 06:15:24;;;;;;;12.77;5.90;;;;;;;-6.16;76.38;101715.04;1714984;81;21524;-76
2020/12/06 06:17:51;;;;;;;8.90;5.73;;;;;;;-6.16;76.28;101709.62;1721493;82;21137;-75
2020/12/06 06:20:19;;;;;;;13.10;6.47;;;;;;;-6.20;76.29;101715.56;1713031;82;21130;-76
2020/12/06 06:22:47;;;;;;;13.23;6.50;;;;;;;-6.23;76.08;101712.80;1726432;82;21561;-75
2020/12/06 06:25:14;;;;;;;9.60;4.60;;;;;;;-6.23;76.59;101714.06;1718808;82;21073;-75
2020/12/06 06:27:42;;;;;;;14.13;6.77;;;;;;;-6.11;76.17;101718.81;1712630;82;21341;-75
2020/12/06 06:30:11;;;;;;;10.47;6.13;;;;;;;-5.37;75.20;101721.55;1721590;81;21085;-77
2020/12/06 06:32:39;;;;;;;7.77;5.10;;;;;;;-4.47;72.37;101714.38;1736303;82;21133;-77
2020/12/06 06:35:08;;;;;;;8.97;5.57;;;;;;;-3.70;68.00;101717.25;1722466;81;21113;-76
2020/12/06 06:37:37;;;;;;;12.23;6.23;;;;;;;-3.44;68.20;101723.23;1684017;83;21217;-75
2020/12/06 06:40:07;;;;;;;15.57;6.47;;;;;;;-3.83;67.06;101720.58;1672044;85;21359;-73
2020/12/06 06:42:57;;;;;;;11.60;6.17;;;;;;;-4.31;67.34;101716.36;1739343;81;21174;-74
2020/12/06 06:45:25;;;;;;;11.40;5.70;;;;;;;-4.68;67.98;101719.11;1683285;84;21049;-73
2020/12/06 06:47:52;;;;;;;11.33;5.97;;;;;;;-5.03;68.52;101716.54;1628648;86;21088;-74
2020/12/06 06:50:20;;;;;;;11.43;5.43;;;;;;;-5.28;69.46;101717.59;1698234;84;21151;-73
2020/12/06 06:52:48;;;;;;;10.43;5.17;;;;;;;-5.44;69.89;101721.47;1645482;85;22678;-74
2020/12/06 06:55:16;;;;;;;11.33;5.20;;;;;;;-5.50;70.03;101721.37;1646238;86;21072;-74
2020/12/06 06:57:43;;;;;;;9.00;4.33;;;;;;;-5.60;70.52;101719.80;1658486;86;21156;-74
2020/12/06 07:00:11;;;;;;;12.00;6.53;;;;;;;-5.68;70.77;101720.86;1620421;86;21444;-75
2020/12/06 07:02:40;;;;;;;12.33;5.43;;;;;;;-5.66;71.20;101716.45;1678869;84;21191;-73
2020/12/06 07:05:20;;;;;;;13.18;6.78;;;;;;;-5.67;70.88;101720.97;1696989;84;22196;-74
2020/12/06 07:07:53;;;;;;;13.13;6.67;;;;;;;-5.68;71.02;101711.66;1668209;85;21171;-73
2020/12/06 07:10:24;;;;;;;15.67;6.13;;;;;;;-5.66;70.84;101710.50;1665928;86;21155;-74
2020/12/06 07:12:54;;;;;;;10.93;5.43;;;;;;;-5.72;70.83;101709.66;1682358;84;21084;-74
2020/12/06 07:15:25;;;;;;;14.67;6.63;;;;;;;-5.71;70.84;101720.23;1680034;84;21358;-74
2020/12/06 07:17:54;;;;;;;9.67;5.33;;;;;;;-5.69;70.82;101716.56;1683816;82;21903;-74
2020/12/06 07:20:23;;;;;;;10.00;5.80;;;;;;;-5.66;71.06;101721.84;1656667;86;21109;-73
2020/12/06 07:22:52;;;;;;;15.63;5.93;;;;;;;-5.65;70.96;101721.10;1628611;86;21147;-74
2020/12/06 07:25:20;;;;;;;11.60;5.70;;;;;;;-5.68;70.85;101720.86;1685262;84;21148;-73
2020/12/06 07:27:47;;;;;;;13.33;5.50;;;;;;;-5.70;70.89;101724.51;1654920;85;21172;-74
2020/12/06 07:30:18;;;;;;;10.40;4.93;;;;;;;-5.71;70.92;101724.41;1648637;86;21383;-73
2020/12/06 07:32:46;;;;;;;8.10;4.22;;;;;;;-5.71;70.54;101724.41;1651637;86;21156;-74
2020/12/06 07:35:15;;;;;;;9.07;5.17;;;;;;;-5.73;70.42;101727.17;1679189;84;21163;-74
2020/12/06 07:37:45;;;;;;;14.30;6.20;;;;;;;-5.67;71.07;101732.70;1693794;84;21092;-74
2020/12/06 07:40:12;;;;;;;16.23;7.00;;;;;;;-5.61;70.88;101741.13;1665985;84;21076;-74
2020/12/06 07:42:41;;;;;;;6.57;3.87;;;;;;;-5.55;70.75;101744.12;1649848;86;21385;-73
2020/12/06 07:45:09;;;;;;;12.57;5.80;;;;;;;-5.53;69.78;101742.19;1622325;86;21183;-74
2020/12/06 07:47:37;;;;;;;10.43;5.00;;;;;;;-5.51;69.94;101740.67;1648471;86;21159;-74
2020/12/06 07:50:06;;;;;;;13.73;6.27;;;;;;;-5.50;69.71;101747.86;1628235;88;21095;-74
2020/12/06 07:52:35;;;;;;;12.07;5.37;;;;;;;-5.44;70.03;101749.20;1645167;86;21096;-74
2020/12/06 07:55:10;;;;;;;8.85;5.30;;;;;;;-5.35;70.11;101744.38;1648743;86;22133;-74
2020/12/06 07:57:47;;;;;;;13.33;5.80;;;;;;;-5.33;69.46;101739.95;1646549;86;21647;-74
2020/12/06 08:00:21;;;;;;;10.53;5.50;;;;;;;-5.29;69.14;101741.07;1651960;85;21188;-74
2020/12/06 08:02:57;;;;;;;13.67;5.43;;;;;;;-5.29;68.85;101741.07;1668181;84;21665;-74
2020/12/06 08:05:30;;;;;;;12.67;6.37;;;;;;;-5.24;69.24;101739.37;1666012;84;21058;-75
2020/12/06 08:08:16;;;;;;;11.80;6.23;;;;;;;-5.20;69.55;101740.12;1640625;86;21454;-75
2020/12/06 08:10:52;;;;;;;14.70;5.53;;;;;;;-5.12;69.41;101734.38;1692166;83;21107;-74
2020/12/06 08:13:20;;;;;;;12.03;5.80;;;;;;;-5.07;67.72;101735.97;1621234;86;21196;-74
2020/12/06 08:15:47;;;;;;;11.97;6.37;;;;;;;-5.12;67.55;101735.64;1646019;86;21485;-73
2020/12/06 08:20:56;;;;;;;9.90;5.50;;;;;;;-5.07;68.19;101725.88;1837358;77;22264;-74
2020/12/06 08:23:33;;;;;;;14.33;6.97;;;;;;;-5.04;68.50;101726.11;1802432;78;21218;-75
2020/12/06 08:26:01;;;;;;;12.63;6.43;;;;;;;-4.93;67.87;101734.51;1807431;78;21361;-73
2020/12/06 08:28:30;;;;;;;13.00;7.17;;;;;;;-4.84;67.58;101737.33;1791079;77;21112;-74
2020/12/06 08:30:58;;;;;;;11.63;5.20;;;;;;;-4.82;66.99;101731.99;1787666;78;21117;-74
2020/12/06 08:33:28;;;;;;;11.33;5.70;;;;;;;-4.80;66.29;101740.96;1810912;78;21050;-74
2020/12/06 08:35:56;;;;;;;14.43;6.83;;;;;;;-4.83;66.98;101738.20;1818068;77;21033;-75
2020/12/06 08:38:33;;;;;;;9.03;5.13;;;;;;;-4.81;67.29;101742.97;1779547;79;21377;-75
2020/12/06 08:41:13;;;;;;;15.70;6.03;;;;;;;-4.75;66.68;101730.41;1619483;87;21464;-76
2020/12/06 08:43:52;;;;;;;12.80;6.30;;;;;;;-4.24;65.46;101730.31;1641727;87;21223;-76
2020/12/06 08:46:24;;;;;;;11.00;6.13;;;;;;;-3.28;62.73;101727.70;1606352;87;21525;-76
2020/12/06 08:48:54;;;;;;;11.13;6.43;;;;;;;-2.26;58.94;101726.84;1613787;87;21130;-76
2020/12/06 08:51:34;;;;;;;14.68;6.47;;;;;;;-1.33;57.81;101715.28;1616997;87;21251;-76
2020/12/06 08:54:06;;;;;;;13.43;6.43;;;;;;;-0.40;55.60;101711.33;1616949;87;21101;-75
2020/12/06 08:56:38;;;;;;;11.13;5.90;;;;;;;0.76;52.24;101711.66;1626284;86;21235;-76
2020/12/06 08:59:16;;;;;;;9.60;5.60;;;;;;;1.39;48.08;101710.18;1638379;87;21183;-76
2020/12/06 09:01:50;;;;;;;11.53;6.17;;;;;;;1.38;46.82;101705.89;1617193;86;21223;-76
2020/12/06 09:04:18;;;;;;;13.37;6.10;;;;;;;1.39;46.42;101708.03;1616798;87;21629;-76
2020/12/06 09:06:47;;;;;;;10.90;6.80;;;;;;;1.62;45.31;101704.05;1608694;87;21191;-78
2020/12/06 09:09:15;;;;;;;9.53;6.10;;;;;;;1.86;45.93;101710.34;1625463;87;21215;-77
2020/12/06 09:11:43;;;;;;;14.03;7.53;;;;;;;1.91;43.89;101709.67;1617668;87;21064;-80
2020/12/06 09:14:14;;;;;;;11.33;6.28;;;;;;;2.23;45.13;101716.28;1624670;87;21045;-80
2020/12/06 09:16:42;;;;;;;11.77;7.03;;;;;;;2.94;45.05;101708.37;1617663;87;21644;-81
2020/12/06 09:19:13;;;;;;;15.93;6.50;;;;;;;3.86;43.75;101704.84;1639838;83;21320;-76
2020/12/06 09:21:41;;;;;;;19.97;14.07;;;;;;;4.74;41.73;101703.86;1626263;87;21367;-78
2020/12/06 09:24:12;;;;;;;10.70;6.87;;;;;;;5.43;40.45;101703.27;1596756;88;21232;-75
2020/12/06 09:26:40;;;;;;;10.03;6.23;;;;;;;6.09;36.78;101705.36;1622864;87;21179;-75
2020/12/06 09:29:07;;;;;;;9.40;6.07;;;;;;;5.93;36.31;101698.88;1616339;87;21836;-76
2020/12/06 09:31:36;;;;;;;14.83;6.47;;;;;;;5.23;36.63;101696.19;1600642;89;21210;-75
2020/12/06 09:34:04;;;;;;;11.43;6.53;;;;;;;4.92;38.11;101696.41;1607124;89;21318;-73
2020/12/06 09:36:33;;;;;;;12.67;6.87;;;;;;;5.40;38.45;101700.18;1605954;87;21232;-75
2020/12/06 09:39:00;;;;;;;13.20;6.97;;;;;;;5.92;35.20;101702.25;1605389;87;21185;-74
2020/12/06 09:41:30;;;;;;;9.13;5.80;;;;;;;6.33;36.04;101702.22;1653616;86;21216;-74
2020/12/06 09:43:57;;;;;;;11.60;6.97;;;;;;;6.85;34.50;101698.95;1662061;86;21154;-76
2020/12/06 09:46:30;;;;;;;14.33;7.10;;;;;;;6.99;33.19;101698.03;1639678;86;21134;-81
2020/12/06 09:49:00;;;;;;;10.30;5.93;;;;;;;7.24;32.52;101699.13;1635707;87;21597;-76
2020/12/06 09:51:28;;;;;;;10.30;6.00;;;;;;;7.55;31.69;101689.98;1635538;86;21202;-77
2020/12/06 09:53:55;;;;;;;12.27;6.77;;;;;;;7.68;32.78;101681.72;1640393;86;21638;-75
2020/12/06 09:56:28;;;;;;;8.43;5.33;;;;;;;8.09;32.82;101680.08;1637067;86;21208;-76
2020/12/06 09:58:57;;;;;;;7.37;5.10;;;;;;;8.40;29.98;101676.48;1634810;86;21181;-74
2020/12/06 10:01:25;;;;;;;10.13;6.20;;;;;;;8.19;29.64;101674.70;1632596;86;21183;-76
2020/12/06 10:03:53;;;;;;;12.25;6.58;;;;;;;8.15;31.62;101672.48;1634671;86;21091;-76
2020/12/06 10:06:25;;;;;;;12.58;6.30;;;;;;;8.70;31.45;101663.73;1635012;86;22250;-77
2020/12/06 10:08:53;;;;;;;20.37;6.58;;;;;;;9.28;30.45;101677.64;1634434;86;21186;-76
2020/12/06 10:11:23;;;;;;;10.35;6.03;;;;;;;9.54;28.63;101662.98;1634860;86;21097;-77
2020/12/06 10:13:51;;;;;;;9.65;5.55;;;;;;;8.87;28.30;101661.03;1619012;86;21085;-76
2020/12/06 10:16:18;;;;;;;9.30;5.78;;;;;;;8.03;29.91;101658.45;1662697;85;21586;-77
2020/12/06 10:18:46;;;;;;;11.35;6.53;;;;;;;7.58;30.36;101663.02;1658701;85;21757;-76
2020/12/06 10:21:14;;;;;;;12.00;6.15;;;;;;;7.83;31.71;101658.02;1634363;86;21096;-76
2020/12/06 10:23:41;;;;;;;13.75;6.67;;;;;;;8.74;30.39;101656.48;1635080;86;21144;-76
2020/12/06 10:26:09;;;;;;;12.37;6.67;;;;;;;8.93;29.77;101655.12;1634100;86;21075;-76
2020/12/06 10:28:37;;;;;;;12.05;6.60;;;;;;;9.34;29.47;101657.09;1634901;86;21154;-76
2020/12/06 10:31:05;;;;;;;9.90;6.45;;;;;;;9.63;28.98;101661.84;1626507;86;21587;-76
2020/12/06 10:33:32;;;;;;;10.60;6.45;;;;;;;9.69;27.37;101664.52;1634807;86;21102;-76
2020/12/06 10:36:01;;;;;;;10.58;6.25;;;;;;;9.50;27.93;101651.74;1633875;86;21567;-75
2020/12/06 10:38:29;;;;;;;10.90;6.50;;;;;;;8.74;27.96;101653.05;1638821;86;21184;-76
2020/12/06 10:40:56;;;;;;;12.23;6.70;;;;;;;8.41;29.08;101643.81;1640298;86;21167;-77
2020/12/06 10:43:25;;;;;;;11.48;6.10;;;;;;;8.24;29.27;101646.42;1651094;86;21853;-76
2020/12/06 10:45:52;;;;;;;9.53;5.97;;;;;;;8.52;29.03;101643.59;1618007;86;21117;-76
2020/12/06 10:48:20;;;;;;;11.00;6.50;;;;;;;8.55;28.36;101643.66;1662359;84;21192;-75
2020/12/06 10:50:54;;;;;;;10.13;5.83;;;;;;;8.33;29.03;101644.91;1662600;84;21586;-76
2020/12/06 10:53:21;;;;;;;11.38;6.55;;;;;;;8.01;28.89;101649.42;1643000;86;21047;-75
2020/12/06 10:55:49;;;;;;;11.10;6.47;;;;;;;7.60;29.52;101645.91;1643768;86;21384;-76
2020/12/06 10:58:16;;;;;;;9.45;6.47;;;;;;;7.04;30.32;101645.00;1611608;87;21170;-75
2020/12/06 11:00:44;;;;;;;9.48;5.67;;;;;;;6.69;31.29;101647.52;1639381;86;21142;-75
2020/12/06 11:03:11;;;;;;;10.73;5.93;;;;;;;6.59;31.32;101645.52;1638827;86;21115;-75
2020/12/06 11:05:39;;;;;;;10.70;6.43;;;;;;;6.00;31.31;101650.71;1638275;86;21194;-74
2020/12/06 11:08:06;;;;;;;8.33;6.00;;;;;;;5.41;32.88;101642.02;1637211;85;21818;-74
2020/12/06 11:10:34;;;;;;;8.20;4.90;;;;;;;5.04;33.67;101638.27;1638282;86;21197;-75
2020/12/06 11:13:02;;;;;;;9.83;5.63;;;;;;;5.18;33.87;101633.99;1639132;86;21158;-76
2020/12/06 11:15:31;;;;;;;11.40;6.93;;;;;;;5.62;33.77;101634.10;1655007;86;21046;-83
2020/12/06 11:18:01;;;;;;;14.13;5.57;;;;;;;6.38;33.55;101634.25;1651213;86;21123;-80
2020/12/06 11:20:30;;;;;;;11.00;6.03;;;;;;;7.25;31.19;101626.63;1649722;86;21217;-76
2020/12/06 11:22:57;;;;;;;11.47;6.37;;;;;;;7.93;31.51;101624.75;1637787;86;21149;-75
2020/12/06 11:25:25;;;;;;;9.70;5.97;;;;;;;8.50;30.29;101623.77;1648905;86;21218;-76
2020/12/06 11:27:53;;;;;;;8.40;5.58;;;;;;;9.03;29.34;101614.84;1639444;86;21158;-80
2020/12/06 11:30:23;;;;;;;8.68;5.65;;;;;;;9.11;27.90;101618.41;1639002;86;21076;-80